Time;durP1;ratioP1;P1;durP2;ratioP2;P2;SDS_P1;SDS_P2;PMS_P1;PMS_P2;Temp;Humidity;BMP_temperature;BMP_pressure;BME280_temperature;BME280_humidity;BME280_pressure;Samples;Min_cycle;Max_cycle;Signal;HPM_P1;HPM_P2
2022/07/28 00:01:06;;;;;;;3.22;2.92;;;26.90;51.30;;;;;;5087693;28;20127;-60
2022/07/28 00:03:33;;;;;;;3.00;2.80;;;26.80;51.20;;;;;;5087544;28;20478;-60
2022/07/28 00:06:01;;;;;;;3.35;2.67;;;26.80;51.30;;;;;;5087396;28;20052;-60
2022/07/28 00:08:28;;;;;;;3.47;3.08;;;26.90;51.40;;;;;;5087471;28;20040;-60
2022/07/28 00:10:55;;;;;;;3.05;2.40;;;26.90;51.40;;;;;;5087487;28;20101;-60
2022/07/28 00:13:22;;;;;;;2.67;2.45;;;26.80;51.30;;;;;;5087738;28;20738;-60
2022/07/28 00:15:49;;;;;;;3.40;3.10;;;26.80;51.40;;;;;;5087814;28;20048;-60
2022/07/28 00:18:16;;;;;;;3.30;2.83;;;26.80;51.40;;;;;;5087093;28;20150;-60
2022/07/28 00:20:44;;;;;;;2.60;2.40;;;26.80;51.40;;;;;;5084622;28;20051;-60
2022/07/28 00:23:11;;;;;;;3.00;2.72;;;26.80;52.00;;;;;;5084723;28;20121;-60
2022/07/28 00:25:38;;;;;;;3.10;2.67;;;26.80;51.40;;;;;;5087152;28;20085;-60
2022/07/28 00:28:05;;;;;;;2.97;2.75;;;26.80;51.40;;;;;;5087706;28;20040;-60
2022/07/28 00:30:32;;;;;;;3.38;3.17;;;26.80;51.40;;;;;;5069499;28;20044;-60
2022/07/28 00:32:59;;;;;;;3.53;3.17;;;26.80;51.40;;;;;;5087353;28;20054;-60
2022/07/28 00:35:26;;;;;;;2.67;2.47;;;26.80;51.40;;;;;;5087131;28;20467;-60
2022/07/28 00:37:57;;;;;;;2.80;2.60;;;26.80;51.50;;;;;;5086625;28;20040;-60
2022/07/28 00:41:09;;;;;;;3.35;2.80;;;26.80;51.40;;;;;;5087046;28;20424;-60
2022/07/28 00:43:14;;;;;;;3.20;3.00;;;26.80;51.50;;;;;;5086789;28;20077;-60
2022/07/28 00:45:41;;;;;;;3.60;3.30;;;26.80;51.50;;;;;;5086883;28;20083;-60
2022/07/28 00:48:08;;;;;;;3.45;3.10;;;26.80;51.50;;;;;;5087059;28;20071;-60
2022/07/28 00:50:38;;;;;;;3.00;2.80;;;26.80;51.50;;;;;;5086271;28;20154;-60
2022/07/28 00:53:06;;;;;;;;;;;26.80;51.50;;;;;;5083102;28;20051;-60
2022/07/28 00:55:34;;;;;;;2.90;2.70;;;26.80;51.50;;;;;;5086303;28;20018;-60
2022/07/28 00:58:21;;;;;;;2.80;2.55;;;26.80;51.50;;;;;;5086815;28;20050;-60
2022/07/28 01:00:49;;;;;;;2.90;2.70;;;26.80;51.80;;;;;;5085902;28;20052;-60
2022/07/28 01:03:17;;;;;;;2.95;2.63;;;26.80;51.50;;;;;;5086528;28;20553;-60
2022/07/28 01:06:15;;;;;;;2.85;2.65;;;26.80;51.50;;;;;;5085038;28;20048;-60
2022/07/28 01:09:12;;;;;;;2.67;2.50;;;26.80;51.50;;;;;;5086323;28;20150;-60
2022/07/28 01:12:19;;;;;;;3.30;3.00;;;26.80;51.50;;;;;;5086602;28;20103;-60
2022/07/28 01:14:55;;;;;;;2.95;2.75;;;26.80;51.50;;;;;;5086414;28;20097;-60
2022/07/28 01:17:47;;;;;;;2.83;2.63;;;26.80;51.50;;;;;;5086223;28;20135;-60
2022/07/28 01:20:24;;;;;;;2.80;2.60;;;26.80;51.50;;;;;;5085652;28;20450;-60
2022/07/28 01:23:31;;;;;;;2.90;2.70;;;26.80;51.50;;;;;;5086371;28;20184;-60
2022/07/28 01:26:31;;;;;;;2.47;2.38;;;26.80;51.50;;;;;;5080813;28;20047;-60
2022/07/28 01:29:20;;;;;;;3.42;3.13;;;26.80;51.50;;;;;;5085550;28;20425;-60
2022/07/28 01:31:58;;;;;;;2.83;2.63;;;26.80;51.50;;;;;;5086152;28;20131;-60
2022/07/28 01:34:32;;;;;;;3.10;2.88;;;26.80;51.60;;;;;;5085969;28;20489;-60
2022/07/28 01:37:09;;;;;;;2.83;2.63;;;26.80;51.60;;;;;;5086159;28;20480;-60
2022/07/28 01:39:39;;;;;;;2.83;2.63;;;26.80;51.60;;;;;;5085563;28;20093;-60
2022/07/28 01:42:09;;;;;;;3.70;2.72;;;26.80;51.60;;;;;;5086111;28;20516;-60
2022/07/28 01:44:40;;;;;;;3.15;2.88;;;26.70;51.50;;;;;;5085929;28;20247;-60
2022/07/28 01:47:09;;;;;;;2.40;2.30;;;26.70;51.60;;;;;;5086088;28;20100;-60
2022/07/28 01:49:37;;;;;;;3.00;2.70;;;26.70;51.60;;;;;;5084806;28;20513;-60
2022/07/28 01:52:07;;;;;;;3.00;2.80;;;26.70;51.60;;;;;;5085170;28;20123;-60
2022/07/28 01:54:37;;;;;;;2.37;2.27;;;26.70;51.60;;;;;;5085831;28;20093;-60
2022/07/28 01:57:07;;;;;;;2.90;2.70;;;26.70;51.60;;;;;;5080536;28;20836;-60
2022/07/28 01:59:38;;;;;;;2.75;2.55;;;26.70;51.70;;;;;;5085826;28;20048;-60
2022/07/28 02:02:07;;;;;;;3.03;2.75;;;26.70;51.60;;;;;;5085216;28;20117;-60
2022/07/28 02:04:38;;;;;;;2.83;2.63;;;26.70;51.60;;;;;;5085549;28;20056;-60
2022/07/28 02:07:06;;;;;;;2.67;2.47;;;26.70;51.70;;;;;;5085947;28;20437;-60
2022/07/28 02:09:34;;;;;;;4.28;2.90;;;26.70;51.60;;;;;;5085632;28;20040;-60
2022/07/28 02:12:03;;;;;;;2.90;2.65;;;26.70;51.70;;;;;;5085686;28;20052;-60
2022/07/28 02:14:33;;;;;;;3.38;2.38;;;26.70;51.70;;;;;;5085420;28;20044;-60
2022/07/28 02:17:11;;;;;;;3.15;2.85;;;26.70;51.70;;;;;;5085034;28;20478;-60
2022/07/28 02:19:41;;;;;;;4.85;2.78;;;26.70;51.70;;;;;;5085296;28;20101;-60
2022/07/28 02:22:10;;;;;;;2.70;2.50;;;26.70;51.70;;;;;;5086456;28;20119;-60
2022/07/28 02:24:39;;;;;;;3.25;2.80;;;26.70;51.70;;;;;;5086884;28;20439;-60
2022/07/28 02:27:34;;;;;;;3.08;2.88;;;26.70;51.70;;;;;;5081779;28;20121;-60
2022/07/28 02:30:11;;;;;;;3.72;3.28;;;26.70;51.70;;;;;;5085971;28;20056;-60
2022/07/28 02:32:57;;;;;;;2.80;2.60;;;26.70;51.70;;;;;;5085717;28;20048;-60
2022/07/28 02:35:49;;;;;;;2.80;2.55;;;26.70;51.70;;;;;;5085182;28;20127;-60
2022/07/28 02:38:26;;;;;;;2.97;2.70;;;26.70;51.70;;;;;;5085208;28;20417;-60
2022/07/28 02:40:58;;;;;;;2.70;2.40;;;26.70;51.70;;;;;;5084340;28;20480;-60
2022/07/28 02:43:30;;;;;;;3.78;2.75;;;26.70;51.70;;;;;;5085614;28;20528;-60
2022/07/28 02:46:22;;;;;;;2.65;2.45;;;26.70;51.70;;;;;;5084817;28;20492;-59
2022/07/28 02:48:55;;;;;;;3.83;2.83;;;26.70;51.70;;;;;;5085183;28;20139;-61
2022/07/28 02:51:27;;;;;;;3.30;2.65;;;26.70;51.70;;;;;;5084650;28;20105;-60
2022/07/28 02:53:55;;;;;;;2.90;2.63;;;26.70;51.70;;;;;;5084982;28;20491;-60
2022/07/28 02:56:24;;;;;;;2.92;2.60;;;26.70;51.70;;;;;;5085094;28;20570;-60
2022/07/28 02:58:53;;;;;;;2.45;2.35;;;26.70;51.80;;;;;;5080126;28;20055;-59
2022/07/28 03:01:21;;;;;;;2.85;2.65;;;26.70;51.70;;;;;;5088150;28;20097;-59
2022/07/28 03:03:50;;;;;;;2.65;2.45;;;26.70;51.70;;;;;;5087716;28;20055;-59
2022/07/28 03:06:22;;;;;;;3.22;2.75;;;26.70;51.70;;;;;;5088486;28;20389;-59
2022/07/28 03:08:56;;;;;;;2.63;2.35;;;26.70;51.80;;;;;;5089120;28;20072;-59
2022/07/28 03:11:23;;;;;;;2.80;2.60;;;26.70;51.80;;;;;;5088183;28;20320;-61
2022/07/28 03:13:50;;;;;;;2.97;2.78;;;26.70;51.80;;;;;;5089272;28;20066;-62
2022/07/28 03:16:18;;;;;;;3.33;2.95;;;26.70;51.80;;;;;;5088870;28;20078;-61
2022/07/28 03:18:45;;;;;;;2.80;2.60;;;26.70;51.80;;;;;;5088573;28;20059;-61
2022/07/28 03:21:12;;;;;;;2.83;2.63;;;26.60;51.80;;;;;;5088622;28;20066;-62
2022/07/28 03:23:42;;;;;;;2.55;2.45;;;26.70;51.90;;;;;;5088235;28;20138;-62
2022/07/28 03:26:29;;;;;;;2.53;2.33;;;26.70;51.80;;;;;;5088894;28;20081;-62
2022/07/28 03:28:58;;;;;;;2.72;2.53;;;26.70;51.90;;;;;;5072080;28;20218;-62
2022/07/28 03:31:27;;;;;;;2.38;2.25;;;26.70;51.90;;;;;;5082642;28;20048;-62
2022/07/28 03:33:54;;;;;;;2.40;2.20;;;26.70;51.90;;;;;;5087778;28;20504;-62
2022/07/28 03:36:34;;;;;;;2.53;2.33;;;26.70;51.90;;;;;;5088600;28;20148;-62
2022/07/28 03:39:05;;;;;;;3.38;2.95;;;26.60;51.80;;;;;;5088376;28;20476;-62
2022/07/28 03:41:33;;;;;;;2.22;2.13;;;26.70;51.90;;;;;;5088339;28;20056;-62
2022/07/28 03:44:01;;;;;;;2.50;2.30;;;26.60;51.80;;;;;;5088455;28;20090;-62
2022/07/28 03:46:28;;;;;;;2.60;2.40;;;26.70;51.90;;;;;;5088277;28;20146;-62
2022/07/28 03:48:56;;;;;;;3.30;2.60;;;26.70;51.90;;;;;;5088423;28;20105;-62
2022/07/28 03:51:24;;;;;;;2.42;2.33;;;26.70;51.90;;;;;;5088093;28;20067;-62
2022/07/28 03:53:51;;;;;;;2.88;2.65;;;26.70;51.90;;;;;;5084885;28;21019;-62
2022/07/28 03:56:18;;;;;;;3.58;2.80;;;26.70;51.90;;;;;;5078123;28;20044;-61
2022/07/28 03:58:45;;;;;;;3.10;2.90;;;26.70;51.90;;;;;;5084186;28;20068;-59
2022/07/28 04:01:13;;;;;;;2.50;2.30;;;26.70;51.80;;;;;;5085376;28;20386;-59
2022/07/28 04:03:40;;;;;;;2.33;2.22;;;26.70;51.80;;;;;;5084261;28;20151;-59
2022/07/28 04:06:13;;;;;;;2.45;2.33;;;26.70;51.80;;;;;;5087754;28;20044;-59
2022/07/28 04:08:43;;;;;;;2.40;2.20;;;26.70;51.80;;;;;;5087834;28;20048;-59
2022/07/28 04:11:11;;;;;;;2.60;2.40;;;26.70;51.80;;;;;;5084467;28;20059;-59
2022/07/28 04:13:38;;;;;;;2.15;2.05;;;26.70;51.70;;;;;;5087140;28;20052;-59
2022/07/28 04:16:06;;;;;;;2.88;2.67;;;26.80;51.80;;;;;;5081976;28;20076;-59
2022/07/28 04:18:34;;;;;;;2.75;2.55;;;26.80;51.80;;;;;;5081767;28;20412;-59
2022/07/28 04:21:01;;;;;;;2.53;2.33;;;26.80;51.70;;;;;;5087380;28;20044;-59
2022/07/28 04:23:29;;;;;;;2.40;2.25;;;26.80;51.70;;;;;;5087673;28;20083;-59
2022/07/28 04:25:56;;;;;;;2.90;2.70;;;26.80;51.70;;;;;;5088323;28;20125;-60
2022/07/28 04:28:24;;;;;;;2.38;2.17;;;26.80;51.70;;;;;;5088169;28;20051;-59
2022/07/28 04:30:51;;;;;;;2.30;2.20;;;26.80;51.70;;;;;;5087920;28;20047;-60
2022/07/28 04:33:18;;;;;;;2.22;2.10;;;26.80;51.70;;;;;;5080755;28;20416;-60
2022/07/28 04:35:46;;;;;;;2.60;2.40;;;26.80;51.60;;;;;;5087942;28;20048;-59
2022/07/28 04:38:13;;;;;;;2.60;2.40;;;26.80;51.60;;;;;;5085862;28;20565;-59
2022/07/28 04:40:41;;;;;;;2.40;2.20;;;26.80;51.60;;;;;;5087517;28;20115;-59
2022/07/28 04:43:09;;;;;;;2.50;2.30;;;26.80;51.60;;;;;;5083866;28;20044;-60
2022/07/28 04:45:36;;;;;;;3.45;2.97;;;26.80;51.50;;;;;;5087325;28;20079;-60
2022/07/28 04:48:04;;;;;;;2.50;2.30;;;26.80;51.50;;;;;;5087294;28;20047;-60
2022/07/28 04:50:31;;;;;;;2.63;2.38;;;26.90;51.50;;;;;;5087536;28;20040;-61
2022/07/28 04:52:59;;;;;;;2.50;2.30;;;26.90;51.50;;;;;;5086348;28;20079;-60
2022/07/28 04:55:26;;;;;;;2.30;2.10;;;26.90;51.50;;;;;;5087013;28;20560;-60
2022/07/28 04:57:53;;;;;;;2.35;2.25;;;26.90;51.40;;;;;;5087624;28;20568;-60
2022/07/28 05:00:21;;;;;;;2.35;2.17;;;26.90;51.40;;;;;;5084274;28;20047;-60
2022/07/28 05:02:50;;;;;;;2.40;2.30;;;26.90;51.30;;;;;;5086201;28;20040;-60
2022/07/28 05:05:17;;;;;;;2.42;2.30;;;26.90;51.30;;;;;;5075514;28;20052;-60
2022/07/28 05:07:44;;;;;;;2.70;2.50;;;26.90;51.30;;;;;;5084058;28;20075;-60
2022/07/28 05:10:12;;;;;;;2.20;2.08;;;26.90;51.40;;;;;;5083994;28;20093;-64
2022/07/28 05:12:39;;;;;;;2.63;2.08;;;26.90;51.50;;;;;;5084586;28;20079;-60
2022/07/28 05:15:08;;;;;;;2.70;2.50;;;26.80;51.50;;;;;;5084975;28;20044;-60
2022/07/28 05:17:35;;;;;;;2.95;2.40;;;26.70;51.80;;;;;;5076850;28;20052;-61
2022/07/28 05:20:04;;;;;;;6.80;3.20;;;26.50;52.10;;;;;;5084522;28;20527;-66
2022/07/28 05:22:45;;;;;;;6.93;4.00;;;26.30;53.60;;;;;;5068785;28;20048;-66
2022/07/28 05:25:19;;;;;;;3.80;3.30;;;25.90;53.90;;;;;;5083519;28;20516;-68
2022/07/28 05:27:47;;;;;;;5.20;3.78;;;25.50;53.50;;;;;;5078016;28;20538;-68
2022/07/28 05:30:16;;;;;;;3.60;3.30;;;25.10;54.00;;;;;;5075220;28;20416;-67
2022/07/28 05:32:44;;;;;;;4.15;3.75;;;24.70;53.60;;;;;;5074926;28;20109;-65
2022/07/28 05:35:11;;;;;;;5.70;3.53;;;24.30;54.00;;;;;;5078553;28;20055;-65
2022/07/28 05:37:39;;;;;;;4.32;3.85;;;23.90;54.60;;;;;;5074909;28;20040;-62
2022/07/28 05:40:10;;;;;;;3.33;3.03;;;23.50;53.90;;;;;;5078300;28;20554;-60
2022/07/28 05:42:38;;;;;;;6.65;2.72;;;23.20;53.60;;;;;;5081314;28;20047;-60
2022/07/28 05:45:07;;;;;;;3.40;3.00;;;23.00;53.30;;;;;;5081461;28;20068;-59
2022/07/28 05:47:47;;;;;;;4.20;2.78;;;22.80;53.30;;;;;;5064803;28;20048;-59
2022/07/28 05:50:16;;;;;;;2.97;2.67;;;22.50;53.20;;;;;;5067919;28;20132;-61
2022/07/28 05:52:45;;;;;;;3.85;2.90;;;22.30;53.20;;;;;;5070956;28;22510;-63
2022/07/28 05:55:13;;;;;;;4.35;2.78;;;22.10;53.10;;;;;;5063404;28;20052;-63
2022/07/28 05:57:40;;;;;;;3.20;2.95;;;22.00;53.50;;;;;;5080054;28;20050;-65
2022/07/28 06:00:11;;;;;;;5.75;3.08;;;21.80;53.50;;;;;;5072789;28;20052;-62
2022/07/28 06:02:39;;;;;;;;;;;21.60;53.90;;;;;;5074925;28;20089;-63
2022/07/28 06:05:07;;;;;;;5.70;3.03;;;21.50;54.90;;;;;;5078868;28;19927;-64
2022/07/28 06:07:35;;;;;;;3.78;3.10;;;21.40;55.40;;;;;;5066397;28;20060;-64
2022/07/28 06:10:11;;;;;;;3.88;2.97;;;21.30;55.40;;;;;;5076291;28;20047;-65
2022/07/28 06:12:40;;;;;;;4.68;3.42;;;21.20;56.00;;;;;;5079113;28;20497;-64
2022/07/28 06:15:13;;;;;;;3.37;3.07;;;21.20;56.30;;;;;;5083867;28;20391;-65
2022/07/28 06:17:41;;;;;;;6.13;2.72;;;21.20;56.30;;;;;;5079268;28;20077;-70
2022/07/28 06:20:09;;;;;;;3.78;3.05;;;21.10;57.00;;;;;;5077787;28;20054;-66
2022/07/28 06:22:42;;;;;;;3.15;2.88;;;21.10;56.80;;;;;;5078691;28;20066;-65
2022/07/28 06:25:17;;;;;;;3.90;2.70;;;21.00;56.80;;;;;;5072849;28;21914;-65
2022/07/28 06:27:45;;;;;;;5.40;3.17;;;21.00;56.90;;;;;;5078469;28;20396;-68
2022/07/28 06:30:13;;;;;;;4.85;3.25;;;21.00;57.30;;;;;;5072925;28;20078;-65
2022/07/28 06:32:40;;;;;;;7.43;2.95;;;21.00;57.20;;;;;;5078489;28;20453;-66
2022/07/28 06:35:07;;;;;;;5.80;3.53;;;21.00;57.30;;;;;;5077622;28;20062;-67
2022/07/28 06:37:35;;;;;;;5.38;3.05;;;21.00;57.40;;;;;;5081753;28;20130;-66
2022/07/28 06:40:03;;;;;;;5.20;3.25;;;21.00;57.20;;;;;;5076397;28;20051;-71
2022/07/28 06:42:30;;;;;;;6.85;2.88;;;21.00;57.70;;;;;;5076824;28;20048;-66
2022/07/28 06:44:58;;;;;;;3.55;2.80;;;21.00;57.70;;;;;;5082824;28;20047;-68
2022/07/28 06:47:26;;;;;;;4.60;2.55;;;21.00;58.00;;;;;;5084599;28;20048;-67
2022/07/28 06:49:53;;;;;;;3.55;3.25;;;21.00;57.50;;;;;;5079599;28;20139;-67
2022/07/28 06:52:21;;;;;;;2.85;2.65;;;21.00;57.30;;;;;;5081698;28;20044;-67
2022/07/28 06:54:50;;;;;;;3.33;2.97;;;21.10;58.00;;;;;;5079968;28;20071;-65
2022/07/28 06:57:21;;;;;;;2.97;2.60;;;21.10;57.80;;;;;;5078219;28;20048;-65
2022/07/28 06:59:54;;;;;;;3.33;2.75;;;21.10;57.70;;;;;;5082756;28;20131;-66
2022/07/28 07:02:21;;;;;;;3.65;3.35;;;21.10;57.50;;;;;;5080666;28;20051;-66
2022/07/28 07:04:54;;;;;;;6.93;3.13;;;21.10;58.00;;;;;;5074610;28;20147;-65
2022/07/28 07:07:22;;;;;;;4.30;3.13;;;21.10;58.30;;;;;;5073776;28;20113;-65
2022/07/28 07:09:50;;;;;;;4.22;2.90;;;21.10;58.80;;;;;;5076911;28;20055;-66
2022/07/28 07:12:17;;;;;;;3.17;2.88;;;21.10;59.00;;;;;;5073049;28;20144;-65
2022/07/28 07:14:44;;;;;;;3.38;2.97;;;21.10;59.10;;;;;;5079492;28;20048;-65
2022/07/28 07:17:12;;;;;;;5.68;3.13;;;21.10;59.80;;;;;;5079309;28;20431;-66
2022/07/28 07:19:39;;;;;;;4.07;3.20;;;21.20;59.20;;;;;;5074696;28;20048;-66
2022/07/28 07:22:06;;;;;;;3.85;2.65;;;21.20;59.40;;;;;;5073356;28;20412;-65
2022/07/28 07:24:34;;;;;;;3.30;3.00;;;21.20;58.90;;;;;;5076279;28;20048;-66
2022/07/28 07:27:01;;;;;;;8.00;2.80;;;21.30;58.80;;;;;;5074539;28;20045;-67
2022/07/28 07:29:28;;;;;;;3.53;3.00;;;21.30;59.20;;;;;;5078672;28;20094;-66
2022/07/28 07:31:57;;;;;;;4.20;3.53;;;21.30;59.00;;;;;;5074383;28;20059;-64
2022/07/28 07:34:25;;;;;;;3.05;2.75;;;21.40;58.80;;;;;;5076219;28;20474;-65
2022/07/28 07:36:52;;;;;;;5.10;2.70;;;21.40;59.00;;;;;;5083829;28;20052;-66
2022/07/28 07:39:19;;;;;;;3.58;3.10;;;21.40;59.10;;;;;;5081322;28;20603;-63
2022/07/28 07:41:46;;;;;;;6.05;3.28;;;21.50;58.50;;;;;;5074725;28;20062;-64
2022/07/28 07:44:14;;;;;;;2.83;2.63;;;21.50;58.80;;;;;;5078375;28;20048;-65
2022/07/28 07:46:43;;;;;;;4.82;3.08;;;21.50;58.80;;;;;;5079059;28;20047;-64
2022/07/28 07:49:10;;;;;;;7.72;2.90;;;21.50;58.60;;;;;;5079384;28;20493;-65
2022/07/28 07:51:37;;;;;;;2.97;2.67;;;21.50;58.60;;;;;;5080893;28;20116;-66
2022/07/28 07:54:04;;;;;;;3.20;2.90;;;21.50;58.40;;;;;;5080682;28;20040;-65
2022/07/28 07:56:34;;;;;;;4.05;3.05;;;21.60;58.60;;;;;;5078584;28;20089;-67
2022/07/28 07:59:01;;;;;;;3.55;3.25;;;21.60;58.90;;;;;;5082177;28;20826;-66
2022/07/28 08:01:28;;;;;;;3.25;2.88;;;21.60;58.40;;;;;;5082157;28;20052;-65
2022/07/28 08:03:58;;;;;;;6.47;3.95;;;21.70;58.40;;;;;;5077931;28;20651;-66
2022/07/28 08:06:26;;;;;;;4.07;3.45;;;21.70;58.40;;;;;;5083944;28;21874;-68
2022/07/28 08:08:55;;;;;;;3.67;2.53;;;21.80;58.10;;;;;;5076955;28;20501;-68
2022/07/28 08:11:22;;;;;;;4.05;2.80;;;21.80;58.20;;;;;;5076110;28;20141;-68
2022/07/28 08:13:49;;;;;;;3.22;2.92;;;21.80;58.00;;;;;;5074260;28;20056;-68
2022/07/28 08:16:16;;;;;;;3.30;3.00;;;21.90;57.80;;;;;;5079279;28;20052;-65
2022/07/28 08:18:44;;;;;;;3.80;2.83;;;21.80;57.60;;;;;;5077703;28;20220;-66
2022/07/28 08:21:12;;;;;;;4.10;3.17;;;21.90;57.40;;;;;;5078638;28;20519;-66
2022/07/28 08:23:39;;;;;;;5.32;3.28;;;21.90;57.50;;;;;;5079644;28;20497;-66
2022/07/28 08:26:06;;;;;;;4.93;3.20;;;21.80;57.80;;;;;;5084378;28;20048;-63
2022/07/28 08:28:34;;;;;;;5.20;3.08;;;21.90;57.50;;;;;;5083671;28;20113;-68
2022/07/28 08:31:01;;;;;;;4.82;3.13;;;21.90;57.30;;;;;;5075298;28;20484;-66
2022/07/28 08:33:29;;;;;;;3.67;3.30;;;22.00;57.60;;;;;;5071334;28;20437;-72
2022/07/28 08:35:58;;;;;;;3.30;3.00;;;22.00;57.20;;;;;;5079153;28;20052;-65
2022/07/28 08:38:26;;;;;;;3.42;3.13;;;22.00;57.10;;;;;;5075193;28;20044;-65
2022/07/28 08:40:55;;;;;;;3.00;2.70;;;22.00;57.30;;;;;;5080167;28;20048;-66
2022/07/28 08:43:37;;;;;;;3.38;2.72;;;22.00;57.20;;;;;;5081563;28;20520;-66
2022/07/28 08:46:05;;;;;;;3.55;2.92;;;22.10;57.10;;;;;;5072160;28;20051;-63
2022/07/28 08:48:34;;;;;;;3.55;2.83;;;22.00;56.90;;;;;;5072572;28;20051;-64
2022/07/28 08:51:06;;;;;;;4.30;3.03;;;22.00;56.90;;;;;;5075726;28;20040;-65
2022/07/28 08:53:35;;;;;;;4.22;3.40;;;22.10;56.90;;;;;;5072327;28;20441;-67
2022/07/28 08:56:05;;;;;;;4.25;3.08;;;22.10;56.70;;;;;;5081306;28;20145;-64
2022/07/28 08:58:34;;;;;;;3.20;2.90;;;22.10;56.70;;;;;;5077935;28;20070;-66
2022/07/28 09:01:02;;;;;;;3.80;3.28;;;22.10;56.90;;;;;;5082645;28;20044;-65
2022/07/28 09:03:30;;;;;;;3.88;3.35;;;22.10;57.00;;;;;;5085149;28;20120;-66
2022/07/28 09:05:57;;;;;;;5.07;2.88;;;22.10;57.00;;;;;;5079524;28;20048;-66
2022/07/28 09:08:25;;;;;;;3.33;3.03;;;22.20;56.70;;;;;;5075967;28;20563;-64
2022/07/28 09:10:52;;;;;;;3.65;3.35;;;22.20;57.00;;;;;;5076993;28;20055;-66
2022/07/28 09:13:20;;;;;;;3.17;2.88;;;22.20;57.00;;;;;;5080267;28;20566;-65
2022/07/28 09:15:47;;;;;;;3.00;2.70;;;22.20;57.00;;;;;;5080615;28;20040;-65
2022/07/28 09:18:16;;;;;;;2.95;2.75;;;22.20;57.30;;;;;;5078170;28;20470;-64
2022/07/28 09:20:44;;;;;;;3.75;2.67;;;22.20;58.00;;;;;;5078057;28;20497;-64
2022/07/28 09:23:12;;;;;;;4.35;2.80;;;22.20;57.40;;;;;;5082159;28;20067;-66
2022/07/28 09:26:07;;;;;;;3.38;2.78;;;22.20;57.30;;;;;;5080649;28;20539;-64
2022/07/28 09:29:00;;;;;;;3.35;3.05;;;22.20;57.10;;;;;;5081268;28;20051;-65
2022/07/28 09:31:29;;;;;;;3.50;3.20;;;22.30;56.90;;;;;;5076204;28;20036;-63
2022/07/28 09:34:02;;;;;;;3.83;3.33;;;22.20;57.20;;;;;;5093859;27;20052;-62
2022/07/28 09:36:37;;;;;;;3.30;3.08;;;22.20;57.00;;;;;;5059167;28;20063;-64
2022/07/28 09:39:04;;;;;;;4.65;2.83;;;22.20;57.20;;;;;;5064090;28;20080;-64
2022/07/28 09:41:53;;;;;;;3.53;3.22;;;22.30;57.30;;;;;;5080919;28;20072;-63
2022/07/28 09:44:23;;;;;;;7.65;3.28;;;22.20;56.80;;;;;;5080258;28;20054;-63
2022/07/28 09:46:50;;;;;;;3.70;3.10;;;22.20;57.10;;;;;;5080248;28;20558;-63
2022/07/28 09:49:17;;;;;;;8.77;3.35;;;22.20;57.30;;;;;;5076561;28;20048;-63
2022/07/28 09:52:02;;;;;;;4.22;3.22;;;22.30;57.10;;;;;;5084275;28;20052;-63
2022/07/28 09:54:30;;;;;;;3.90;3.10;;;22.30;57.00;;;;;;5080813;28;20046;-62
2022/07/28 09:56:57;;;;;;;3.60;3.30;;;22.30;57.00;;;;;;5081915;28;20439;-63
2022/07/28 09:59:24;;;;;;;6.53;3.83;;;22.30;56.50;;;;;;5077432;28;20149;-61
2022/07/28 10:01:57;;;;;;;4.40;3.47;;;22.30;56.70;;;;;;5082474;28;20562;-61
2022/07/28 10:04:34;;;;;;;4.63;3.70;;;22.30;56.50;;;;;;5085198;28;20052;-61
2022/07/28 10:07:13;;;;;;;5.05;3.97;;;22.30;56.50;;;;;;5076486;28;20093;-62
2022/07/28 10:09:41;;;;;;;6.25;3.40;;;22.30;56.50;;;;;;5083328;28;20787;-61
2022/07/28 10:12:23;;;;;;;4.55;3.67;;;22.30;56.40;;;;;;5080435;28;20083;-62
2022/07/28 10:14:54;;;;;;;3.28;2.95;;;22.30;56.40;;;;;;5082014;28;20052;-61
2022/07/28 10:17:34;;;;;;;4.00;3.67;;;22.30;56.40;;;;;;5083324;28;20067;-62
2022/07/28 10:20:05;;;;;;;4.38;3.92;;;22.30;56.40;;;;;;5081420;28;20039;-63
2022/07/28 10:22:36;;;;;;;3.72;3.42;;;22.30;56.40;;;;;;5083594;28;20434;-61
2022/07/28 10:25:13;;;;;;;3.75;3.33;;;22.30;56.30;;;;;;5086912;28;20056;-62
2022/07/28 10:27:44;;;;;;;4.53;3.22;;;22.20;56.20;;;;;;5079161;28;20498;-61
2022/07/28 10:30:12;;;;;;;5.18;3.38;;;22.20;56.20;;;;;;5079053;28;20056;-64
2022/07/28 10:32:42;;;;;;;3.63;3.33;;;22.20;55.80;;;;;;5082922;28;20369;-62
2022/07/28 10:35:15;;;;;;;3.77;3.37;;;22.10;56.00;;;;;;5079371;28;20052;-63
2022/07/28 10:37:52;;;;;;;3.60;3.30;;;22.10;55.60;;;;;;5076543;28;20711;-62
2022/07/28 10:40:25;;;;;;;5.72;3.53;;;22.10;55.60;;;;;;5079258;28;20449;-62
2022/07/28 10:42:52;;;;;;;4.00;3.58;;;22.00;55.60;;;;;;5077774;28;20039;-62
2022/07/28 10:45:20;;;;;;;3.85;3.55;;;22.00;55.40;;;;;;5078587;28;20109;-62
2022/07/28 10:47:48;;;;;;;4.03;3.08;;;22.00;55.50;;;;;;5075035;28;20074;-62
2022/07/28 10:50:17;;;;;;;5.20;3.22;;;22.00;55.40;;;;;;5075149;28;20097;-63
2022/07/28 10:52:45;;;;;;;3.55;3.25;;;22.00;55.70;;;;;;5073164;28;20119;-63
2022/07/28 10:55:46;;;;;;;3.63;3.33;;;21.90;56.00;;;;;;5082284;28;20063;-63
2022/07/28 10:58:28;;;;;;;4.50;3.63;;;21.90;56.00;;;;;;5079644;28;20574;-63
2022/07/28 11:00:55;;;;;;;5.05;3.90;;;21.90;55.90;;;;;;5080534;28;20044;-63
2022/07/28 11:03:43;;;;;;;4.20;3.80;;;21.90;56.10;;;;;;5083955;28;20093;-62
2022/07/28 11:06:34;;;;;;;4.45;3.92;;;21.90;55.80;;;;;;5076179;28;20048;-63
2022/07/28 11:09:20;;;;;;;;;;;21.90;55.60;;;;;;5080815;28;20076;-63
2022/07/28 11:11:52;;;;;;;4.28;3.67;;;21.90;55.70;;;;;;5081061;28;19973;-63
2022/07/28 11:14:33;;;;;;;4.03;3.47;;;21.90;56.10;;;;;;5075564;28;20040;-64
2022/07/28 11:17:17;;;;;;;4.60;3.47;;;21.80;55.90;;;;;;5068378;28;20073;-63
2022/07/28 11:19:55;;;;;;;4.38;3.13;;;21.90;56.00;;;;;;5072607;28;20079;-62
2022/07/28 11:22:42;;;;;;;5.85;4.00;;;21.90;56.20;;;;;;5080785;28;20044;-64
2022/07/28 11:25:10;;;;;;;4.25;3.20;;;21.90;56.30;;;;;;5076684;28;20485;-62
2022/07/28 11:27:58;;;;;;;3.60;3.08;;;21.90;56.40;;;;;;5076589;28;20112;-63
2022/07/28 11:30:49;;;;;;;3.50;3.20;;;22.00;56.50;;;;;;5083108;28;20063;-63
2022/07/28 11:33:16;;;;;;;5.40;3.25;;;22.00;56.40;;;;;;5079492;28;20094;-63
2022/07/28 11:35:56;;;;;;;3.95;3.58;;;22.00;56.60;;;;;;5077622;28;20447;-64
2022/07/28 11:38:25;;;;;;;4.00;3.13;;;22.10;56.70;;;;;;5077418;28;20557;-62
2022/07/28 11:40:54;;;;;;;6.15;3.30;;;22.10;56.80;;;;;;5080721;28;20051;-61
2022/07/28 11:43:28;;;;;;;6.20;4.05;;;22.10;56.60;;;;;;5080536;28;20431;-61
2022/07/28 11:46:25;;;;;;;3.88;3.33;;;22.20;56.70;;;;;;5080217;28;20040;-62
2022/07/28 11:49:13;;;;;;;5.10;3.67;;;22.20;56.40;;;;;;5076334;28;20052;-61
2022/07/28 11:52:07;;;;;;;3.60;3.30;;;22.20;56.30;;;;;;5074702;28;20055;-61
2022/07/28 11:54:35;;;;;;;3.67;3.28;;;22.40;58.50;;;;;;5082300;28;20044;-62
2022/07/28 11:57:03;;;;;;;3.67;3.20;;;22.50;58.20;;;;;;5076811;28;20075;-61
2022/07/28 11:59:43;;;;;;;4.28;3.10;;;22.80;57.80;;;;;;5075049;28;20050;-62
2022/07/28 12:02:17;;;;;;;3.42;3.13;;;23.00;57.30;;;;;;5078116;28;20079;-62
2022/07/28 12:04:52;;;;;;;3.78;3.45;;;23.10;56.90;;;;;;5077808;28;20063;-62
2022/07/28 12:07:32;;;;;;;3.20;2.90;;;23.20;54.60;;;;;;5077098;28;20048;-61
2022/07/28 12:10:00;;;;;;;4.20;3.80;;;23.20;54.30;;;;;;5080759;28;20055;-62
2022/07/28 12:12:27;;;;;;;3.33;3.03;;;23.10;54.50;;;;;;5075566;28;20044;-62
2022/07/28 12:14:56;;;;;;;3.78;3.20;;;23.00;54.60;;;;;;5079885;28;20166;-62
2022/07/28 12:17:31;;;;;;;4.50;3.25;;;22.90;54.90;;;;;;5080722;28;20052;-62
2022/07/28 12:20:07;;;;;;;4.30;3.17;;;22.80;55.00;;;;;;5077800;28;20396;-62
2022/07/28 12:22:52;;;;;;;3.35;3.05;;;22.70;55.10;;;;;;5075538;28;20078;-61
2022/07/28 12:25:20;;;;;;;4.28;3.63;;;22.60;55.30;;;;;;5074137;28;20059;-61
2022/07/28 12:27:48;;;;;;;5.18;3.00;;;22.50;55.50;;;;;;5054350;28;20044;-62
2022/07/28 12:30:25;;;;;;;3.33;3.03;;;22.50;55.30;;;;;;5078350;28;20056;-61
2022/07/28 12:32:55;;;;;;;3.38;3.08;;;22.40;55.20;;;;;;5078175;28;20442;-61
2022/07/28 12:35:23;;;;;;;3.42;3.13;;;22.40;55.40;;;;;;5088466;28;20043;-61
2022/07/28 12:37:51;;;;;;;3.33;3.03;;;22.40;55.40;;;;;;5075741;28;20075;-62
2022/07/28 12:40:19;;;;;;;3.97;3.58;;;22.40;55.40;;;;;;5081883;28;20040;-63
2022/07/28 12:42:53;;;;;;;3.60;3.30;;;22.30;55.30;;;;;;5081077;28;20043;-63
2022/07/28 12:45:20;;;;;;;3.85;2.97;;;22.30;55.20;;;;;;5079334;28;20102;-62
2022/07/28 12:47:48;;;;;;;3.67;3.00;;;22.20;55.40;;;;;;5084622;28;20078;-63
2022/07/28 12:50:18;;;;;;;3.33;3.03;;;22.20;55.30;;;;;;5080812;28;20134;-62
2022/07/28 12:53:08;;;;;;;3.03;2.83;;;22.20;55.30;;;;;;5074560;28;20559;-63
2022/07/28 12:55:37;;;;;;;3.10;2.80;;;22.20;55.30;;;;;;5076432;28;20052;-63
2022/07/28 12:58:05;;;;;;;4.68;3.47;;;22.20;55.40;;;;;;5071857;28;20044;-64
2022/07/28 13:00:35;;;;;;;6.15;3.25;;;22.20;55.40;;;;;;5073251;28;20048;-63
2022/07/28 13:03:24;;;;;;;4.22;3.25;;;22.20;55.40;;;;;;5074524;28;20489;-63
2022/07/28 13:06:02;;;;;;;6.30;3.38;;;22.20;55.30;;;;;;5076731;28;20059;-63
2022/07/28 13:08:44;;;;;;;3.92;3.25;;;22.10;55.50;;;;;;5073923;28;20051;-63
2022/07/28 13:11:15;;;;;;;3.90;3.17;;;22.10;55.60;;;;;;5079173;28;20052;-64